sensor_id;sensor_type;location;lat;lon;timestamp;P1;durP1;ratioP1;P2;durP2;ratioP2
67721;SDS011;58309;45.292;11.820;2023-06-22T00:01:18;19.38;;;16.45;;
67721;SDS011;58309;45.292;11.820;2023-06-22T00:03:43;23.55;;;18.13;;
67721;SDS011;58309;45.292;11.820;2023-06-22T00:06:09;22.35;;;17.70;;
67721;SDS011;58309;45.292;11.820;2023-06-22T00:08:34;21.73;;;17.35;;
67721;SDS011;58309;45.292;11.820;2023-06-22T00:11:00;23.67;;;17.83;;
67721;SDS011;58309;45.292;11.820;2023-06-22T00:13:25;26.77;;;18.35;;
67721;SDS011;58309;45.292;11.820;2023-06-22T00:15:51;21.45;;;18.13;;
67721;SDS011;58309;45.292;11.820;2023-06-22T00:18:16;26.00;;;19.17;;
67721;SDS011;58309;45.292;11.820;2023-06-22T00:20:42;26.48;;;20.40;;
67721;SDS011;58309;45.292;11.820;2023-06-22T00:23:07;22.08;;;19.05;;
67721;SDS011;58309;45.292;11.820;2023-06-22T00:25:36;24.42;;;20.02;;
67721;SDS011;58309;45.292;11.820;2023-06-22T00:28:03;27.50;;;21.05;;
67721;SDS011;58309;45.292;11.820;2023-06-22T00:30:29;25.00;;;20.40;;
67721;SDS011;58309;45.292;11.820;2023-06-22T00:32:56;24.17;;;19.73;;
67721;SDS011;58309;45.292;11.820;2023-06-22T00:35:21;24.60;;;19.33;;
67721;SDS011;58309;45.292;11.820;2023-06-22T00:37:47;24.77;;;20.05;;
67721;SDS011;58309;45.292;11.820;2023-06-22T00:40:12;26.85;;;20.55;;
67721;SDS011;58309;45.292;11.820;2023-06-22T00:42:39;27.23;;;22.00;;
67721;SDS011;58309;45.292;11.820;2023-06-22T00:45:06;26.25;;;20.67;;
67721;SDS011;58309;45.292;11.820;2023-06-22T00:47:32;26.77;;;19.10;;
67721;SDS011;58309;45.292;11.820;2023-06-22T00:49:59;30.58;;;20.88;;
67721;SDS011;58309;45.292;11.820;2023-06-22T00:52:25;28.17;;;20.13;;
67721;SDS011;58309;45.292;11.820;2023-06-22T00:54:54;26.67;;;21.15;;
67721;SDS011;58309;45.292;11.820;2023-06-22T00:57:21;25.08;;;20.15;;
67721;SDS011;58309;45.292;11.820;2023-06-22T00:59:52;27.73;;;20.33;;
67721;SDS011;58309;45.292;11.820;2023-06-22T01:02:18;24.63;;;20.30;;
67721;SDS011;58309;45.292;11.820;2023-06-22T01:04:44;26.15;;;19.80;;
67721;SDS011;58309;45.292;11.820;2023-06-22T01:12:51;23.85;;;19.70;;
67721;SDS011;58309;45.292;11.820;2023-06-22T01:15:25;26.20;;;20.15;;
67721;SDS011;58309;45.292;11.820;2023-06-22T01:17:52;23.88;;;20.00;;
67721;SDS011;58309;45.292;11.820;2023-06-22T01:20:18;29.45;;;21.20;;
67721;SDS011;58309;45.292;11.820;2023-06-22T01:22:57;25.23;;;19.20;;
67721;SDS011;58309;45.292;11.820;2023-06-22T01:25:35;29.30;;;20.98;;
67721;SDS011;58309;45.292;11.820;2023-06-22T01:28:16;25.13;;;20.02;;
67721;SDS011;58309;45.292;11.820;2023-06-22T01:30:45;27.02;;;20.40;;
67721;SDS011;58309;45.292;11.820;2023-06-22T01:33:12;31.83;;;22.88;;
67721;SDS011;58309;45.292;11.820;2023-06-22T01:35:38;28.38;;;22.77;;
67721;SDS011;58309;45.292;11.820;2023-06-22T01:38:05;27.48;;;21.58;;
67721;SDS011;58309;45.292;11.820;2023-06-22T01:40:32;28.67;;;23.73;;
67721;SDS011;58309;45.292;11.820;2023-06-22T01:43:00;26.33;;;20.95;;
67721;SDS011;58309;45.292;11.820;2023-06-22T01:45:27;26.50;;;21.83;;
67721;SDS011;58309;45.292;11.820;2023-06-22T01:47:53;29.00;;;22.67;;
67721;SDS011;58309;45.292;11.820;2023-06-22T01:50:19;26.05;;;21.88;;
67721;SDS011;58309;45.292;11.820;2023-06-22T01:52:45;28.55;;;21.05;;
67721;SDS011;58309;45.292;11.820;2023-06-22T01:55:11;27.92;;;21.58;;
67721;SDS011;58309;45.292;11.820;2023-06-22T01:57:36;30.92;;;21.17;;
67721;SDS011;58309;45.292;11.820;2023-06-22T02:00:13;30.80;;;22.60;;
67721;SDS011;58309;45.292;11.820;2023-06-22T02:05:14;31.05;;;23.70;;
67721;SDS011;58309;45.292;11.820;2023-06-22T02:07:46;28.10;;;21.40;;
67721;SDS011;58309;45.292;11.820;2023-06-22T02:10:17;26.92;;;21.50;;
67721;SDS011;58309;45.292;11.820;2023-06-22T02:12:45;26.35;;;20.58;;
67721;SDS011;58309;45.292;11.820;2023-06-22T02:15:12;28.98;;;23.40;;
67721;SDS011;58309;45.292;11.820;2023-06-22T02:17:39;27.77;;;22.45;;
67721;SDS011;58309;45.292;11.820;2023-06-22T02:20:11;32.72;;;22.27;;
67721;SDS011;58309;45.292;11.820;2023-06-22T02:22:38;28.35;;;22.15;;
67721;SDS011;58309;45.292;11.820;2023-06-22T02:25:03;28.63;;;22.45;;
67721;SDS011;58309;45.292;11.820;2023-06-22T02:27:29;30.23;;;21.90;;
67721;SDS011;58309;45.292;11.820;2023-06-22T02:29:54;30.00;;;23.33;;
67721;SDS011;58309;45.292;11.820;2023-06-22T02:32:20;28.80;;;24.00;;
67721;SDS011;58309;45.292;11.820;2023-06-22T02:34:45;26.90;;;22.38;;
67721;SDS011;58309;45.292;11.820;2023-06-22T02:37:13;28.70;;;22.08;;
67721;SDS011;58309;45.292;11.820;2023-06-22T02:39:39;30.42;;;23.67;;
67721;SDS011;58309;45.292;11.820;2023-06-22T02:42:05;34.03;;;22.60;;
67721;SDS011;58309;45.292;11.820;2023-06-22T02:44:31;29.23;;;21.60;;
67721;SDS011;58309;45.292;11.820;2023-06-22T02:46:56;27.90;;;22.08;;
67721;SDS011;58309;45.292;11.820;2023-06-22T02:49:21;28.02;;;21.77;;
67721;SDS011;58309;45.292;11.820;2023-06-22T02:51:47;26.88;;;22.13;;
67721;SDS011;58309;45.292;11.820;2023-06-22T02:54:13;27.58;;;22.65;;
67721;SDS011;58309;45.292;11.820;2023-06-22T02:56:39;29.67;;;22.75;;
67721;SDS011;58309;45.292;11.820;2023-06-22T02:59:06;31.52;;;22.15;;
67721;SDS011;58309;45.292;11.820;2023-06-22T03:01:31;28.42;;;21.85;;
67721;SDS011;58309;45.292;11.820;2023-06-22T03:04:03;29.85;;;23.80;;
67721;SDS011;58309;45.292;11.820;2023-06-22T03:06:29;30.40;;;23.90;;
67721;SDS011;58309;45.292;11.820;2023-06-22T03:09:04;26.83;;;22.63;;
67721;SDS011;58309;45.292;11.820;2023-06-22T03:11:30;31.02;;;24.23;;
67721;SDS011;58309;45.292;11.820;2023-06-22T03:13:57;31.98;;;24.00;;
67721;SDS011;58309;45.292;11.820;2023-06-22T03:16:22;26.77;;;22.08;;
67721;SDS011;58309;45.292;11.820;2023-06-22T03:18:48;31.92;;;23.90;;
67721;SDS011;58309;45.292;11.820;2023-06-22T03:21:13;31.13;;;23.50;;
67721;SDS011;58309;45.292;11.820;2023-06-22T03:23:40;29.15;;;23.35;;
67721;SDS011;58309;45.292;11.820;2023-06-22T03:26:06;34.33;;;24.73;;
67721;SDS011;58309;45.292;11.820;2023-06-22T03:28:33;31.55;;;24.23;;
67721;SDS011;58309;45.292;11.820;2023-06-22T03:30:58;30.63;;;24.48;;
67721;SDS011;58309;45.292;11.820;2023-06-22T03:33:24;36.05;;;25.23;;
67721;SDS011;58309;45.292;11.820;2023-06-22T03:35:49;33.72;;;25.35;;
67721;SDS011;58309;45.292;11.820;2023-06-22T03:38:15;35.45;;;24.38;;
67721;SDS011;58309;45.292;11.820;2023-06-22T03:40:41;35.33;;;24.77;;
67721;SDS011;58309;45.292;11.820;2023-06-22T03:43:06;33.20;;;25.42;;
67721;SDS011;58309;45.292;11.820;2023-06-22T03:45:32;32.63;;;26.00;;
67721;SDS011;58309;45.292;11.820;2023-06-22T03:47:57;29.33;;;24.48;;
67721;SDS011;58309;45.292;11.820;2023-06-22T03:50:23;30.70;;;25.90;;
67721;SDS011;58309;45.292;11.820;2023-06-22T03:52:48;31.90;;;26.23;;
67721;SDS011;58309;45.292;11.820;2023-06-22T03:55:13;35.08;;;25.85;;
67721;SDS011;58309;45.292;11.820;2023-06-22T03:57:39;32.92;;;24.17;;
67721;SDS011;58309;45.292;11.820;2023-06-22T04:00:04;32.33;;;24.52;;
67721;SDS011;58309;45.292;11.820;2023-06-22T04:02:31;30.90;;;23.88;;
67721;SDS011;58309;45.292;11.820;2023-06-22T04:04:56;34.78;;;24.75;;
67721;SDS011;58309;45.292;11.820;2023-06-22T04:07:22;35.50;;;25.27;;
67721;SDS011;58309;45.292;11.820;2023-06-22T04:09:47;30.10;;;24.23;;
67721;SDS011;58309;45.292;11.820;2023-06-22T04:12:13;33.33;;;25.10;;
67721;SDS011;58309;45.292;11.820;2023-06-22T04:14:38;32.58;;;23.63;;
67721;SDS011;58309;45.292;11.820;2023-06-22T04:17:04;31.55;;;24.60;;
67721;SDS011;58309;45.292;11.820;2023-06-22T04:19:29;28.95;;;22.83;;
67721;SDS011;58309;45.292;11.820;2023-06-22T04:21:55;32.88;;;23.33;;
67721;SDS011;58309;45.292;11.820;2023-06-22T04:24:20;30.23;;;23.40;;
67721;SDS011;58309;45.292;11.820;2023-06-22T04:26:45;34.78;;;24.63;;
67721;SDS011;58309;45.292;11.820;2023-06-22T04:29:12;32.75;;;23.02;;
67721;SDS011;58309;45.292;11.820;2023-06-22T04:31:37;31.60;;;23.92;;
67721;SDS011;58309;45.292;11.820;2023-06-22T04:34:03;32.45;;;23.95;;
67721;SDS011;58309;45.292;11.820;2023-06-22T04:39:07;31.77;;;22.70;;
67721;SDS011;58309;45.292;11.820;2023-06-22T04:41:39;31.07;;;21.37;;
67721;SDS011;58309;45.292;11.820;2023-06-22T04:44:14;29.60;;;22.73;;
67721;SDS011;58309;45.292;11.820;2023-06-22T04:46:49;31.77;;;22.17;;
67721;SDS011;58309;45.292;11.820;2023-06-22T04:49:33;25.30;;;20.60;;
67721;SDS011;58309;45.292;11.820;2023-06-22T04:52:05;21.80;;;18.92;;
67721;SDS011;58309;45.292;11.820;2023-06-22T04:54:36;23.98;;;18.58;;
67721;SDS011;58309;45.292;11.820;2023-06-22T04:57:03;28.55;;;20.60;;
67721;SDS011;58309;45.292;11.820;2023-06-22T04:59:35;25.17;;;20.67;;
67721;SDS011;58309;45.292;11.820;2023-06-22T05:02:01;23.45;;;18.75;;
67721;SDS011;58309;45.292;11.820;2023-06-22T05:04:28;22.33;;;19.35;;
67721;SDS011;58309;45.292;11.820;2023-06-22T05:06:56;24.98;;;19.90;;
67721;SDS011;58309;45.292;11.820;2023-06-22T05:09:22;23.88;;;18.40;;
67721;SDS011;58309;45.292;11.820;2023-06-22T05:11:48;26.58;;;19.80;;
67721;SDS011;58309;45.292;11.820;2023-06-22T05:14:14;23.35;;;19.10;;
67721;SDS011;58309;45.292;11.820;2023-06-22T05:16:41;19.30;;;16.77;;
67721;SDS011;58309;45.292;11.820;2023-06-22T05:19:07;20.20;;;16.45;;
67721;SDS011;58309;45.292;11.820;2023-06-22T05:21:33;16.73;;;14.80;;
67721;SDS011;58309;45.292;11.820;2023-06-22T05:23:58;23.88;;;15.60;;
67721;SDS011;58309;45.292;11.820;2023-06-22T05:26:28;19.48;;;16.08;;
67721;SDS011;58309;45.292;11.820;2023-06-22T05:28:54;22.15;;;16.42;;
67721;SDS011;58309;45.292;11.820;2023-06-22T05:31:19;21.55;;;17.25;;
67721;SDS011;58309;45.292;11.820;2023-06-22T05:33:46;20.60;;;15.35;;
67721;SDS011;58309;45.292;11.820;2023-06-22T05:36:12;23.05;;;17.23;;
67721;SDS011;58309;45.292;11.820;2023-06-22T05:38:38;22.55;;;17.30;;
67721;SDS011;58309;45.292;11.820;2023-06-22T05:41:04;21.95;;;14.65;;
67721;SDS011;58309;45.292;11.820;2023-06-22T05:43:30;21.63;;;16.20;;
67721;SDS011;58309;45.292;11.820;2023-06-22T05:45:56;21.08;;;16.60;;
67721;SDS011;58309;45.292;11.820;2023-06-22T05:48:21;19.60;;;16.98;;
67721;SDS011;58309;45.292;11.820;2023-06-22T05:50:47;18.52;;;15.45;;
67721;SDS011;58309;45.292;11.820;2023-06-22T05:53:12;20.88;;;15.70;;
67721;SDS011;58309;45.292;11.820;2023-06-22T05:55:38;17.63;;;13.07;;
67721;SDS011;58309;45.292;11.820;2023-06-22T05:58:03;18.15;;;15.02;;
67721;SDS011;58309;45.292;11.820;2023-06-22T06:00:29;19.85;;;14.95;;
67721;SDS011;58309;45.292;11.820;2023-06-22T06:02:55;18.13;;;14.15;;
67721;SDS011;58309;45.292;11.820;2023-06-22T06:05:20;14.95;;;13.35;;
67721;SDS011;58309;45.292;11.820;2023-06-22T06:07:46;20.25;;;14.60;;
67721;SDS011;58309;45.292;11.820;2023-06-22T06:10:12;17.83;;;13.43;;
67721;SDS011;58309;45.292;11.820;2023-06-22T06:12:37;14.05;;;12.52;;
67721;SDS011;58309;45.292;11.820;2023-06-22T06:15:03;17.67;;;13.40;;
67721;SDS011;58309;45.292;11.820;2023-06-22T06:17:30;17.08;;;12.90;;
67721;SDS011;58309;45.292;11.820;2023-06-22T06:19:55;19.92;;;12.70;;
67721;SDS011;58309;45.292;11.820;2023-06-22T06:22:21;15.30;;;11.48;;
67721;SDS011;58309;45.292;11.820;2023-06-22T06:24:48;17.55;;;11.65;;
67721;SDS011;58309;45.292;11.820;2023-06-22T06:27:14;15.27;;;10.00;;
67721;SDS011;58309;45.292;11.820;2023-06-22T06:29:39;12.80;;;11.05;;
67721;SDS011;58309;45.292;11.820;2023-06-22T06:32:05;18.90;;;11.50;;
67721;SDS011;58309;45.292;11.820;2023-06-22T06:34:31;13.23;;;10.77;;
67721;SDS011;58309;45.292;11.820;2023-06-22T06:36:56;15.68;;;10.68;;
67721;SDS011;58309;45.292;11.820;2023-06-22T06:39:22;12.82;;;11.13;;
67721;SDS011;58309;45.292;11.820;2023-06-22T06:41:47;14.82;;;11.00;;
67721;SDS011;58309;45.292;11.820;2023-06-22T06:44:13;12.63;;;10.82;;
67721;SDS011;58309;45.292;11.820;2023-06-22T06:46:38;14.23;;;10.70;;
67721;SDS011;58309;45.292;11.820;2023-06-22T06:49:04;15.18;;;12.45;;
67721;SDS011;58309;45.292;11.820;2023-06-22T06:51:29;15.73;;;11.18;;
67721;SDS011;58309;45.292;11.820;2023-06-22T06:53:55;17.60;;;12.45;;
67721;SDS011;58309;45.292;11.820;2023-06-22T06:56:20;14.05;;;10.77;;
67721;SDS011;58309;45.292;11.820;2023-06-22T06:58:46;11.38;;;10.18;;
67721;SDS011;58309;45.292;11.820;2023-06-22T07:01:11;16.67;;;10.40;;
67721;SDS011;58309;45.292;11.820;2023-06-22T07:03:37;12.55;;;9.43;;
67721;SDS011;58309;45.292;11.820;2023-06-22T07:06:03;13.00;;;8.93;;
67721;SDS011;58309;45.292;11.820;2023-06-22T07:08:29;11.52;;;9.07;;
67721;SDS011;58309;45.292;11.820;2023-06-22T07:10:54;14.45;;;9.40;;
67721;SDS011;58309;45.292;11.820;2023-06-22T07:13:19;12.63;;;9.77;;
67721;SDS011;58309;45.292;11.820;2023-06-22T07:15:45;10.13;;;9.10;;
67721;SDS011;58309;45.292;11.820;2023-06-22T07:18:10;14.80;;;9.48;;
67721;SDS011;58309;45.292;11.820;2023-06-22T07:20:36;15.05;;;9.52;;
67721;SDS011;58309;45.292;11.820;2023-06-22T07:23:02;18.13;;;9.38;;
67721;SDS011;58309;45.292;11.820;2023-06-22T07:25:28;11.43;;;9.05;;
67721;SDS011;58309;45.292;11.820;2023-06-22T07:28:01;10.18;;;8.40;;
67721;SDS011;58309;45.292;11.820;2023-06-22T07:30:28;13.98;;;8.88;;
67721;SDS011;58309;45.292;11.820;2023-06-22T07:32:54;12.15;;;9.52;;
67721;SDS011;58309;45.292;11.820;2023-06-22T07:35:20;14.32;;;9.27;;
67721;SDS011;58309;45.292;11.820;2023-06-22T07:37:45;17.70;;;9.15;;
67721;SDS011;58309;45.292;11.820;2023-06-22T07:40:11;15.13;;;9.68;;
67721;SDS011;58309;45.292;11.820;2023-06-22T07:42:37;12.35;;;8.80;;
67721;SDS011;58309;45.292;11.820;2023-06-22T07:45:03;11.70;;;7.72;;
67721;SDS011;58309;45.292;11.820;2023-06-22T07:47:29;16.30;;;7.75;;
67721;SDS011;58309;45.292;11.820;2023-06-22T07:49:55;15.30;;;8.35;;
67721;SDS011;58309;45.292;11.820;2023-06-22T07:52:26;13.90;;;9.23;;
67721;SDS011;58309;45.292;11.820;2023-06-22T07:54:52;12.50;;;8.23;;
67721;SDS011;58309;45.292;11.820;2023-06-22T07:57:17;13.43;;;8.13;;
67721;SDS011;58309;45.292;11.820;2023-06-22T07:59:43;13.63;;;7.80;;
67721;SDS011;58309;45.292;11.820;2023-06-22T08:02:09;11.52;;;7.80;;
67721;SDS011;58309;45.292;11.820;2023-06-22T08:04:34;9.00;;;7.85;;
67721;SDS011;58309;45.292;11.820;2023-06-22T08:07:00;12.95;;;7.45;;
67721;SDS011;58309;45.292;11.820;2023-06-22T08:09:30;13.82;;;8.50;;
67721;SDS011;58309;45.292;11.820;2023-06-22T08:11:57;9.80;;;7.60;;
67721;SDS011;58309;45.292;11.820;2023-06-22T08:14:26;13.00;;;7.38;;
67721;SDS011;58309;45.292;11.820;2023-06-22T08:16:52;10.63;;;7.10;;
67721;SDS011;58309;45.292;11.820;2023-06-22T08:19:17;11.82;;;7.35;;
67721;SDS011;58309;45.292;11.820;2023-06-22T08:21:43;12.52;;;7.13;;
67721;SDS011;58309;45.292;11.820;2023-06-22T08:24:08;12.15;;;7.72;;
67721;SDS011;58309;45.292;11.820;2023-06-22T08:26:34;11.38;;;7.22;;
67721;SDS011;58309;45.292;11.820;2023-06-22T08:29:04;9.43;;;7.03;;
67721;SDS011;58309;45.292;11.820;2023-06-22T08:31:30;9.50;;;6.70;;
67721;SDS011;58309;45.292;11.820;2023-06-22T08:33:58;11.30;;;7.10;;
67721;SDS011;58309;45.292;11.820;2023-06-22T08:36:23;8.52;;;7.10;;
67721;SDS011;58309;45.292;11.820;2023-06-22T08:38:49;16.30;;;7.20;;
67721;SDS011;58309;45.292;11.820;2023-06-22T08:41:16;8.00;;;7.18;;
67721;SDS011;58309;45.292;11.820;2023-06-22T08:43:42;8.35;;;7.30;;
67721;SDS011;58309;45.292;11.820;2023-06-22T08:46:09;12.48;;;6.90;;
67721;SDS011;58309;45.292;11.820;2023-06-22T08:48:35;12.18;;;6.72;;
67721;SDS011;58309;45.292;11.820;2023-06-22T08:51:00;12.10;;;6.30;;
67721;SDS011;58309;45.292;11.820;2023-06-22T08:53:26;9.05;;;6.15;;
67721;SDS011;58309;45.292;11.820;2023-06-22T08:55:51;10.52;;;7.10;;
67721;SDS011;58309;45.292;11.820;2023-06-22T08:58:16;9.10;;;6.43;;
67721;SDS011;58309;45.292;11.820;2023-06-22T09:00:43;10.07;;;6.32;;
67721;SDS011;58309;45.292;11.820;2023-06-22T09:03:08;10.88;;;6.22;;
67721;SDS011;58309;45.292;11.820;2023-06-22T09:05:34;8.60;;;6.25;;
67721;SDS011;58309;45.292;11.820;2023-06-22T09:07:59;9.77;;;6.28;;
67721;SDS011;58309;45.292;11.820;2023-06-22T09:10:25;7.90;;;5.75;;
67721;SDS011;58309;45.292;11.820;2023-06-22T09:12:51;10.98;;;6.38;;
67721;SDS011;58309;45.292;11.820;2023-06-22T09:15:16;8.43;;;6.20;;
67721;SDS011;58309;45.292;11.820;2023-06-22T09:17:42;6.55;;;5.60;;
67721;SDS011;58309;45.292;11.820;2023-06-22T09:20:07;7.18;;;6.00;;
67721;SDS011;58309;45.292;11.820;2023-06-22T09:22:35;7.97;;;6.05;;
67721;SDS011;58309;45.292;11.820;2023-06-22T09:25:01;9.30;;;6.35;;
67721;SDS011;58309;45.292;11.820;2023-06-22T09:27:27;7.63;;;6.53;;
67721;SDS011;58309;45.292;11.820;2023-06-22T09:29:53;10.18;;;5.88;;
67721;SDS011;58309;45.292;11.820;2023-06-22T09:32:18;7.93;;;5.97;;
67721;SDS011;58309;45.292;11.820;2023-06-22T09:34:44;11.18;;;6.45;;
67721;SDS011;58309;45.292;11.820;2023-06-22T09:37:09;13.50;;;6.20;;
67721;SDS011;58309;45.292;11.820;2023-06-22T09:39:35;9.52;;;5.90;;
67721;SDS011;58309;45.292;11.820;2023-06-22T09:42:01;10.43;;;6.40;;
67721;SDS011;58309;45.292;11.820;2023-06-22T09:44:27;9.05;;;6.05;;
67721;SDS011;58309;45.292;11.820;2023-06-22T09:46:52;10.65;;;6.25;;
67721;SDS011;58309;45.292;11.820;2023-06-22T09:49:18;12.65;;;6.40;;
67721;SDS011;58309;45.292;11.820;2023-06-22T09:51:43;10.68;;;7.00;;
67721;SDS011;58309;45.292;11.820;2023-06-22T09:54:09;19.10;;;6.53;;
67721;SDS011;58309;45.292;11.820;2023-06-22T09:56:34;7.45;;;6.20;;
67721;SDS011;58309;45.292;11.820;2023-06-22T09:59:00;10.90;;;6.10;;
67721;SDS011;58309;45.292;11.820;2023-06-22T10:01:25;8.95;;;6.22;;
67721;SDS011;58309;45.292;11.820;2023-06-22T10:03:52;12.15;;;6.30;;
67721;SDS011;58309;45.292;11.820;2023-06-22T10:06:20;8.65;;;6.40;;
67721;SDS011;58309;45.292;11.820;2023-06-22T10:08:46;8.85;;;6.32;;
67721;SDS011;58309;45.292;11.820;2023-06-22T10:11:13;9.50;;;6.47;;
67721;SDS011;58309;45.292;11.820;2023-06-22T10:13:39;8.07;;;6.45;;
67721;SDS011;58309;45.292;11.820;2023-06-22T10:16:05;11.60;;;6.68;;
67721;SDS011;58309;45.292;11.820;2023-06-22T10:18:30;25.63;;;7.10;;
67721;SDS011;58309;45.292;11.820;2023-06-22T10:20:56;11.50;;;6.53;;
67721;SDS011;58309;45.292;11.820;2023-06-22T10:23:21;11.75;;;6.25;;
67721;SDS011;58309;45.292;11.820;2023-06-22T10:25:47;8.70;;;6.10;;
67721;SDS011;58309;45.292;11.820;2023-06-22T10:28:13;7.78;;;5.15;;
67721;SDS011;58309;45.292;11.820;2023-06-22T10:30:39;13.60;;;5.40;;
67721;SDS011;58309;45.292;11.820;2023-06-22T10:33:08;7.60;;;5.35;;
67721;SDS011;58309;45.292;11.820;2023-06-22T10:35:35;8.80;;;5.28;;
67721;SDS011;58309;45.292;11.820;2023-06-22T10:38:02;7.38;;;5.63;;
67721;SDS011;58309;45.292;11.820;2023-06-22T10:40:28;8.40;;;6.18;;
67721;SDS011;58309;45.292;11.820;2023-06-22T10:42:54;9.23;;;5.30;;
67721;SDS011;58309;45.292;11.820;2023-06-22T10:45:19;13.07;;;5.22;;
67721;SDS011;58309;45.292;11.820;2023-06-22T10:47:44;8.95;;;5.28;;
67721;SDS011;58309;45.292;11.820;2023-06-22T10:50:10;7.53;;;5.10;;
67721;SDS011;58309;45.292;11.820;2023-06-22T10:52:36;8.88;;;5.50;;
67721;SDS011;58309;45.292;11.820;2023-06-22T10:55:02;13.63;;;5.40;;
67721;SDS011;58309;45.292;11.820;2023-06-22T10:57:27;7.97;;;5.65;;
67721;SDS011;58309;45.292;11.820;2023-06-22T10:59:53;8.23;;;5.70;;
67721;SDS011;58309;45.292;11.820;2023-06-22T11:02:18;6.88;;;5.22;;
67721;SDS011;58309;45.292;11.820;2023-06-22T11:04:43;7.97;;;5.32;;
67721;SDS011;58309;45.292;11.820;2023-06-22T11:07:09;9.30;;;5.72;;
67721;SDS011;58309;45.292;11.820;2023-06-22T11:09:35;6.05;;;5.20;;
67721;SDS011;58309;45.292;11.820;2023-06-22T11:12:00;9.13;;;4.82;;
67721;SDS011;58309;45.292;11.820;2023-06-22T11:14:26;10.13;;;4.82;;
67721;SDS011;58309;45.292;11.820;2023-06-22T11:16:51;7.22;;;4.60;;
67721;SDS011;58309;45.292;11.820;2023-06-22T11:19:18;8.32;;;4.80;;
67721;SDS011;58309;45.292;11.820;2023-06-22T11:21:43;9.95;;;5.30;;
67721;SDS011;58309;45.292;11.820;2023-06-22T11:24:09;5.20;;;4.70;;
67721;SDS011;58309;45.292;11.820;2023-06-22T11:26:34;8.75;;;4.90;;
67721;SDS011;58309;45.292;11.820;2023-06-22T11:29:00;7.88;;;5.07;;
67721;SDS011;58309;45.292;11.820;2023-06-22T11:31:30;10.48;;;5.22;;
67721;SDS011;58309;45.292;11.820;2023-06-22T11:33:55;9.65;;;4.85;;
67721;SDS011;58309;45.292;11.820;2023-06-22T11:36:21;6.70;;;4.72;;
67721;SDS011;58309;45.292;11.820;2023-06-22T11:38:46;8.57;;;4.88;;
67721;SDS011;58309;45.292;11.820;2023-06-22T11:41:12;5.25;;;4.75;;
67721;SDS011;58309;45.292;11.820;2023-06-22T11:43:37;8.32;;;5.20;;
67721;SDS011;58309;45.292;11.820;2023-06-22T11:46:03;9.13;;;5.03;;
67721;SDS011;58309;45.292;11.820;2023-06-22T11:48:29;10.40;;;4.95;;
67721;SDS011;58309;45.292;11.820;2023-06-22T11:50:55;10.20;;;5.03;;
67721;SDS011;58309;45.292;11.820;2023-06-22T11:53:23;6.85;;;4.95;;
67721;SDS011;58309;45.292;11.820;2023-06-22T11:58:15;6.35;;;4.90;;
67721;SDS011;58309;45.292;11.820;2023-06-22T12:00:41;7.72;;;4.95;;
67721;SDS011;58309;45.292;11.820;2023-06-22T12:03:07;6.40;;;5.03;;
67721;SDS011;58309;45.292;11.820;2023-06-22T12:05:33;6.50;;;4.63;;
67721;SDS011;58309;45.292;11.820;2023-06-22T12:07:58;16.92;;;6.00;;
67721;SDS011;58309;45.292;11.820;2023-06-22T12:10:24;9.98;;;4.93;;
67721;SDS011;58309;45.292;11.820;2023-06-22T12:12:50;12.32;;;4.85;;
67721;SDS011;58309;45.292;11.820;2023-06-22T12:15:16;6.65;;;4.50;;
67721;SDS011;58309;45.292;11.820;2023-06-22T12:17:41;6.63;;;4.70;;
67721;SDS011;58309;45.292;11.820;2023-06-22T12:20:08;7.88;;;4.75;;
67721;SDS011;58309;45.292;11.820;2023-06-22T12:22:34;6.20;;;4.82;;
67721;SDS011;58309;45.292;11.820;2023-06-22T12:24:59;8.82;;;4.93;;
67721;SDS011;58309;45.292;11.820;2023-06-22T12:27:25;7.53;;;4.70;;
67721;SDS011;58309;45.292;11.820;2023-06-22T12:29:51;7.93;;;4.75;;
67721;SDS011;58309;45.292;11.820;2023-06-22T12:32:16;7.43;;;4.75;;
67721;SDS011;58309;45.292;11.820;2023-06-22T12:34:42;6.97;;;4.70;;
67721;SDS011;58309;45.292;11.820;2023-06-22T12:37:09;11.13;;;4.80;;
67721;SDS011;58309;45.292;11.820;2023-06-22T12:39:35;7.47;;;4.95;;
67721;SDS011;58309;45.292;11.820;2023-06-22T12:42:01;7.43;;;5.13;;
67721;SDS011;58309;45.292;11.820;2023-06-22T12:44:26;7.90;;;4.88;;
67721;SDS011;58309;45.292;11.820;2023-06-22T12:46:52;7.90;;;5.30;;
67721;SDS011;58309;45.292;11.820;2023-06-22T12:49:17;10.13;;;5.10;;
67721;SDS011;58309;45.292;11.820;2023-06-22T12:51:43;6.22;;;5.15;;
67721;SDS011;58309;45.292;11.820;2023-06-22T12:54:09;6.85;;;4.88;;
67721;SDS011;58309;45.292;11.820;2023-06-22T12:56:36;11.43;;;5.60;;
67721;SDS011;58309;45.292;11.820;2023-06-22T12:59:02;7.25;;;5.00;;
67721;SDS011;58309;45.292;11.820;2023-06-22T13:01:28;10.48;;;5.50;;
67721;SDS011;58309;45.292;11.820;2023-06-22T13:03:55;5.43;;;4.93;;
67721;SDS011;58309;45.292;11.820;2023-06-22T13:06:21;8.77;;;5.25;;
67721;SDS011;58309;45.292;11.820;2023-06-22T13:08:47;11.07;;;5.30;;
67721;SDS011;58309;45.292;11.820;2023-06-22T13:11:12;9.63;;;5.38;;
67721;SDS011;58309;45.292;11.820;2023-06-22T13:13:38;9.75;;;5.10;;
67721;SDS011;58309;45.292;11.820;2023-06-22T13:16:04;8.57;;;5.22;;
67721;SDS011;58309;45.292;11.820;2023-06-22T13:18:30;9.65;;;5.20;;
67721;SDS011;58309;45.292;11.820;2023-06-22T13:20:55;8.30;;;5.35;;
67721;SDS011;58309;45.292;11.820;2023-06-22T13:23:21;7.70;;;4.97;;
67721;SDS011;58309;45.292;11.820;2023-06-22T13:25:46;7.35;;;4.93;;
67721;SDS011;58309;45.292;11.820;2023-06-22T13:28:12;11.07;;;4.78;;
67721;SDS011;58309;45.292;11.820;2023-06-22T13:30:39;7.55;;;5.30;;
67721;SDS011;58309;45.292;11.820;2023-06-22T13:33:05;11.93;;;5.10;;
67721;SDS011;58309;45.292;11.820;2023-06-22T13:35:31;9.57;;;5.28;;
67721;SDS011;58309;45.292;11.820;2023-06-22T13:37:56;9.98;;;4.80;;
67721;SDS011;58309;45.292;11.820;2023-06-22T13:40:22;8.35;;;5.03;;
67721;SDS011;58309;45.292;11.820;2023-06-22T13:42:47;8.27;;;5.38;;
67721;SDS011;58309;45.292;11.820;2023-06-22T13:45:13;5.40;;;4.97;;
67721;SDS011;58309;45.292;11.820;2023-06-22T13:47:39;13.30;;;5.47;;
67721;SDS011;58309;45.292;11.820;2023-06-22T13:50:05;9.93;;;5.63;;
67721;SDS011;58309;45.292;11.820;2023-06-22T13:52:31;8.15;;;5.05;;
67721;SDS011;58309;45.292;11.820;2023-06-22T13:54:56;9.02;;;5.55;;
67721;SDS011;58309;45.292;11.820;2023-06-22T13:57:21;12.70;;;5.10;;
67721;SDS011;58309;45.292;11.820;2023-06-22T13:59:47;7.70;;;5.38;;
67721;SDS011;58309;45.292;11.820;2023-06-22T14:02:12;8.98;;;5.28;;
67721;SDS011;58309;45.292;11.820;2023-06-22T14:04:38;7.50;;;4.90;;
67721;SDS011;58309;45.292;11.820;2023-06-22T14:07:04;7.85;;;5.07;;
67721;SDS011;58309;45.292;11.820;2023-06-22T14:09:29;7.32;;;5.13;;
67721;SDS011;58309;45.292;11.820;2023-06-22T14:11:55;8.82;;;5.50;;
67721;SDS011;58309;45.292;11.820;2023-06-22T14:14:21;8.60;;;4.97;;
67721;SDS011;58309;45.292;11.820;2023-06-22T14:16:46;9.05;;;5.03;;
67721;SDS011;58309;45.292;11.820;2023-06-22T14:19:14;9.32;;;5.75;;
67721;SDS011;58309;45.292;11.820;2023-06-22T14:21:39;6.30;;;4.72;;
67721;SDS011;58309;45.292;11.820;2023-06-22T14:24:05;7.55;;;5.30;;
67721;SDS011;58309;45.292;11.820;2023-06-22T14:26:30;5.60;;;5.10;;